Terminal Aerodrome Forecast
Issued by NWS St Louis, MO

Home | Current Version | Previous Version | Text Only | Print | Product List | Glossary On
Versions: 1 2 3 4 5 6 7 8 9 10 11 12 13 14 15 16 17
000
FTUS43 KLSX 270233 AAA
TAFCOU
TAF AMD
KCOU 270233Z 2703/2724 20004KT P6SM VCTS SCT030CB SCT100
     FM270600 VRB03KT P6SM SCT250
      TEMPO 2710/2713 5SM BR
     FM271600 20006KT P6SM SCT050=

USA.gov is the U.S. government's official web portal to all federal, state and local government web resources and services.